Time;durP1;ratioP1;P1;durP2;ratioP2;P2;SDS_P1;SDS_P2;PMS_P1;PMS_P2;Temp;Humidity;BMP_temperature;BMP_pressure;BME280_temperature;BME280_humidity;BME280_pressure;Samples;Min_cycle;Max_cycle;Signal;HPM_P1;HPM_P2
2023/12/09 00:01:08;;;;;;;36.63;8.77;;;8.10;99.90;;;;;;4973858;28;20059;-89
2023/12/09 00:03:34;;;;;;;27.10;8.23;;;8.00;99.90;;;;;;4977958;28;20023;-88
2023/12/09 00:05:59;;;;;;;34.85;7.95;;;8.10;99.90;;;;;;4977681;28;20045;-88
2023/12/09 00:08:25;;;;;;;34.22;7.55;;;8.10;99.90;;;;;;4975985;28;20038;-88
2023/12/09 00:10:50;;;;;;;19.55;7.05;;;8.10;99.90;;;;;;4973454;28;20050;-89
2023/12/09 00:13:17;;;;;;;25.70;8.15;;;8.10;99.90;;;;;;4974912;28;20030;-88
2023/12/09 00:15:42;;;;;;;31.58;7.55;;;8.10;99.90;;;;;;4945054;29;20035;-90
2023/12/09 00:18:08;;;;;;;37.85;8.65;;;8.10;99.90;;;;;;4955049;29;20024;-89
2023/12/09 00:20:35;;;;;;;32.78;8.18;;;8.10;99.90;;;;;;4961031;29;20031;-89
2023/12/09 00:23:00;;;;;;;33.25;8.20;;;8.10;99.90;;;;;;4969592;29;20038;-90
2023/12/09 00:25:26;;;;;;;30.33;7.70;;;8.10;99.90;;;;;;4960368;29;20033;-90
2023/12/09 00:27:51;;;;;;;34.55;9.40;;;8.10;99.90;;;;;;4955221;29;20078;-90
2023/12/09 00:30:17;;;;;;;43.15;8.02;;;8.10;99.90;;;;;;4954736;29;20471;-89
2023/12/09 00:32:44;;;;;;;28.17;7.10;;;8.70;99.90;;;;;;4954538;29;20023;-90
2023/12/09 00:35:10;;;;;;;32.80;7.60;;;8.10;99.90;;;;;;4954712;29;20057;-90
2023/12/09 00:37:36;;;;;;;32.35;8.32;;;8.10;99.90;;;;;;4955025;29;20537;-89
2023/12/09 00:40:02;;;;;;;31.75;8.68;;;8.10;99.90;;;;;;4957676;29;20110;-88
2023/12/09 00:42:27;;;;;;;30.33;8.75;;;8.10;99.90;;;;;;4960421;28;20379;-88
2023/12/09 00:44:53;;;;;;;30.20;7.32;;;8.10;99.90;;;;;;4962481;28;20487;-88
2023/12/09 00:47:19;;;;;;;33.85;7.95;;;8.00;99.90;;;;;;4957727;28;20431;-88
2023/12/09 00:49:44;;;;;;;35.33;9.07;;;8.00;99.90;;;;;;4963283;28;20019;-88
2023/12/09 00:52:11;;;;;;;31.98;8.65;;;8.10;99.90;;;;;;4954674;28;20423;-89
2023/12/09 00:54:37;;;;;;;38.38;9.85;;;8.10;99.90;;;;;;4958275;29;20037;-88
2023/12/09 00:57:02;;;;;;;30.15;7.75;;;8.90;99.90;;;;;;4967543;28;20015;-88
2023/12/09 00:59:28;;;;;;;27.67;8.07;;;8.10;99.90;;;;;;4974303;28;20364;-90
2023/12/09 01:01:53;;;;;;;29.48;7.90;;;8.10;99.90;;;;;;4966370;28;20035;-88
2023/12/09 01:04:19;;;;;;;35.83;8.15;;;8.00;99.90;;;;;;4959202;28;20023;-89
2023/12/09 01:06:44;;;;;;;23.65;7.80;;;8.00;99.90;;;;;;4978567;28;20039;-89
2023/12/09 01:09:10;;;;;;;34.20;7.78;;;8.00;99.90;;;;;;4979409;28;20057;-89
2023/12/09 01:11:35;;;;;;;30.48;8.10;;;8.00;99.90;;;;;;4980812;28;20058;-89
2023/12/09 01:14:01;;;;;;;37.25;9.60;;;8.00;99.90;;;;;;4968417;28;20483;-88
2023/12/09 01:16:27;;;;;;;49.08;8.93;;;7.90;99.90;;;;;;4976867;28;20097;-89
2023/12/09 01:18:53;;;;;;;25.88;7.75;;;7.90;99.90;;;;;;4976217;28;20026;-87
2023/12/09 01:21:19;;;;;;;30.30;7.32;;;7.90;99.90;;;;;;4976167;28;20030;-88
2023/12/09 01:23:44;;;;;;;28.85;8.57;;;7.90;99.90;;;;;;4967969;28;20522;-88
2023/12/09 01:26:10;;;;;;;36.28;8.60;;;7.90;99.90;;;;;;4970303;28;20030;-88
2023/12/09 01:28:36;;;;;;;33.00;8.15;;;7.90;99.90;;;;;;4976519;28;20039;-88
2023/12/09 01:31:10;;;;;;;32.50;8.45;;;7.80;99.90;;;;;;5004848;23;20500;-89
2023/12/09 01:33:38;;;;;;;34.80;8.40;;;8.40;99.90;;;;;;4938708;29;20039;-90
2023/12/09 01:36:22;;;;;;;30.30;6.68;;;7.80;99.90;;;;;;4929051;29;20500;-89
2023/12/09 01:38:48;;;;;;;37.03;8.65;;;7.80;99.90;;;;;;4934769;29;20082;-89
2023/12/09 01:41:14;;;;;;;29.17;7.35;;;7.80;99.90;;;;;;4937699;29;20035;-90
2023/12/09 01:43:59;;;;;;;29.10;7.10;;;8.50;99.90;;;;;;4938135;29;20515;-90
2023/12/09 01:46:24;;;;;;;27.65;7.95;;;8.40;99.90;;;;;;4937807;29;20024;-90
2023/12/09 01:48:50;;;;;;;25.50;7.30;;;7.70;99.90;;;;;;4929903;29;20036;-89
2023/12/09 01:51:36;;;;;;;27.52;7.20;;;8.40;99.90;;;;;;4937043;28;20063;-90
2023/12/09 01:54:02;;;;;;;27.90;6.72;;;8.50;99.90;;;;;;4953219;29;20460;-89
2023/12/09 01:56:27;;;;;;;27.85;7.93;;;8.40;99.90;;;;;;4940406;29;20090;-89
2023/12/09 01:59:15;;;;;;;32.85;8.25;;;7.70;99.90;;;;;;4931072;29;20035;-89
2023/12/09 02:01:40;;;;;;;33.78;7.53;;;7.60;99.90;;;;;;4917937;29;20063;-89
2023/12/09 02:04:28;;;;;;;24.13;8.23;;;8.40;99.90;;;;;;4916956;29;20442;-88
2023/12/09 02:06:53;;;;;;;24.95;6.45;;;7.70;99.90;;;;;;4918828;29;20040;-90
2023/12/09 02:09:19;;;;;;;22.88;7.65;;;7.60;99.90;;;;;;4917793;29;20024;-89
2023/12/09 02:12:17;;;;;;;21.83;6.55;;;7.60;99.90;;;;;;4924399;29;20639;-90
2023/12/09 02:15:05;;;;;;;22.65;6.07;;;7.60;99.90;;;;;;4913760;29;20119;-89
2023/12/09 02:17:58;;;;;;;22.50;6.78;;;8.40;99.90;;;;;;4927818;29;20032;-91
2023/12/09 02:20:26;;;;;;;22.23;6.53;;;7.60;99.90;;;;;;4901832;29;20028;-89
2023/12/09 02:23:12;;;;;;;28.33;7.28;;;8.40;99.90;;;;;;4924289;29;20036;-89
2023/12/09 02:25:40;;;;;;;32.97;6.97;;;7.50;99.90;;;;;;4920027;29;20032;-90
2023/12/09 02:28:13;;;;;;;24.05;6.68;;;7.50;99.90;;;;;;4919302;29;20028;-88
2023/12/09 02:31:05;;;;;;;25.85;6.70;;;7.50;99.90;;;;;;4918314;29;20048;-89
2023/12/09 02:33:32;;;;;;;24.95;6.90;;;7.50;99.90;;;;;;4918251;29;20032;-89
2023/12/09 02:36:00;;;;;;;20.10;7.07;;;7.50;99.90;;;;;;4918060;29;20024;-88
2023/12/09 02:38:28;;;;;;;25.08;6.57;;;7.50;99.90;;;;;;4919724;29;20052;-87
2023/12/09 02:40:54;;;;;;;21.58;7.07;;;7.50;99.90;;;;;;4922199;29;20428;-88
2023/12/09 02:43:20;;;;;;;23.02;6.15;;;7.50;99.90;;;;;;4926344;29;20456;-90
2023/12/09 02:45:45;;;;;;;28.23;5.88;;;7.50;99.90;;;;;;4942415;29;20467;-88
2023/12/09 02:48:11;;;;;;;25.90;6.38;;;7.50;99.90;;;;;;4942518;29;20030;-89
2023/12/09 02:50:37;;;;;;;19.67;5.57;;;7.50;99.90;;;;;;4937007;29;20123;-89
2023/12/09 02:53:03;;;;;;;23.60;6.93;;;7.50;99.90;;;;;;4932991;29;20032;-88
2023/12/09 02:55:29;;;;;;;17.00;4.85;;;7.50;99.90;;;;;;4925851;29;20048;-89
2023/12/09 02:57:54;;;;;;;17.50;5.75;;;7.50;99.90;;;;;;4917649;29;20507;-87
2023/12/09 03:00:20;;;;;;;24.45;5.30;;;7.50;99.90;;;;;;4917172;29;20071;-89
2023/12/09 03:02:45;;;;;;;23.33;5.75;;;7.40;99.90;;;;;;4919419;29;20046;-88
2023/12/09 03:05:11;;;;;;;26.80;5.43;;;7.40;99.90;;;;;;4928797;29;20027;-88
2023/12/09 03:07:36;;;;;;;18.40;5.60;;;7.40;99.90;;;;;;4917059;29;20444;-89
2023/12/09 03:10:02;;;;;;;27.35;5.65;;;7.90;99.90;;;;;;4917551;29;20119;-89
2023/12/09 03:12:28;;;;;;;19.42;4.88;;;7.40;99.90;;;;;;4917324;29;20036;-88
2023/12/09 03:14:53;;;;;;;25.27;5.88;;;7.50;99.90;;;;;;4924471;29;20039;-88
2023/12/09 03:17:19;;;;;;;27.35;5.25;;;7.40;99.90;;;;;;4929371;29;20028;-88
2023/12/09 03:19:45;;;;;;;19.88;5.57;;;7.40;99.90;;;;;;4935125;29;20056;-89
2023/12/09 03:22:10;;;;;;;26.90;5.65;;;7.40;99.90;;;;;;4935798;29;20162;-90
2023/12/09 03:24:36;;;;;;;25.85;6.47;;;7.40;99.90;;;;;;4932557;29;20028;-88
2023/12/09 03:27:01;;;;;;;31.58;6.47;;;7.40;99.90;;;;;;4926738;29;20035;-89
2023/12/09 03:29:27;;;;;;;21.40;5.18;;;7.40;99.90;;;;;;4916519;29;20032;-89
2023/12/09 03:31:52;;;;;;;27.73;5.28;;;7.60;99.90;;;;;;4917654;29;20131;-90
2023/12/09 03:34:18;;;;;;;22.17;6.18;;;7.40;99.90;;;;;;4917129;29;20028;-89
2023/12/09 03:36:43;;;;;;;34.30;6.57;;;7.40;99.90;;;;;;4922642;29;20035;-89
2023/12/09 03:39:15;;;;;;;27.85;6.85;;;7.40;99.90;;;;;;4927249;29;20028;-88
2023/12/09 03:41:41;;;;;;;27.10;6.50;;;8.20;99.90;;;;;;4953166;28;20051;-88
2023/12/09 03:44:07;;;;;;;23.27;6.15;;;7.40;99.90;;;;;;4941484;29;20059;-89
2023/12/09 03:46:32;;;;;;;28.42;6.50;;;8.40;99.90;;;;;;4930170;29;20050;-89
2023/12/09 03:49:07;;;;;;;26.05;7.15;;;7.40;99.90;;;;;;4924900;29;20358;-89
2023/12/09 03:51:32;;;;;;;25.90;5.88;;;7.40;99.90;;;;;;4917142;29;20044;-89
2023/12/09 03:54:13;;;;;;;17.40;5.30;;;8.30;99.90;;;;;;4924321;29;20488;-90
2023/12/09 03:56:39;;;;;;;17.25;5.60;;;8.20;99.90;;;;;;4921224;29;20551;-89
2023/12/09 03:59:04;;;;;;;20.88;6.40;;;7.80;99.90;;;;;;4927596;29;20111;-90
2023/12/09 04:01:30;;;;;;;18.63;4.85;;;7.30;99.90;;;;;;4936139;29;20039;-89
2023/12/09 04:03:58;;;;;;;24.17;5.90;;;8.10;99.90;;;;;;4935370;29;20035;-89
2023/12/09 04:06:24;;;;;;;22.70;5.15;;;8.00;99.90;;;;;;4932810;29;20039;-89
2023/12/09 04:08:49;;;;;;;19.45;6.03;;;7.40;99.90;;;;;;4935241;29;20102;-89
2023/12/09 04:11:15;;;;;;;21.90;5.80;;;8.20;99.90;;;;;;4936108;29;20043;-90
2023/12/09 04:13:40;;;;;;;33.95;6.35;;;7.40;99.90;;;;;;4936377;29;20559;-90
2023/12/09 04:16:06;;;;;;;27.38;5.47;;;7.40;99.90;;;;;;4937462;29;20549;-90
2023/12/09 04:18:33;;;;;;;27.08;5.20;;;7.40;99.90;;;;;;4942182;29;20024;-90
2023/12/09 04:21:17;;;;;;;37.35;6.78;;;7.40;99.90;;;;;;4916340;29;20440;-90
2023/12/09 04:23:49;;;;;;;23.40;6.72;;;7.80;99.90;;;;;;4943151;29;20038;-90
2023/12/09 04:26:15;;;;;;;15.43;5.50;;;7.40;99.90;;;;;;4944769;29;20027;-90
2023/12/09 04:28:40;;;;;;;34.08;6.55;;;7.40;99.90;;;;;;4938140;29;20507;-90
2023/12/09 04:31:06;;;;;;;21.83;5.93;;;7.40;99.90;;;;;;4925292;29;20560;-90
2023/12/09 04:33:32;;;;;;;24.50;6.60;;;7.30;99.90;;;;;;4943770;29;20034;-91
2023/12/09 04:35:58;;;;;;;32.15;7.50;;;7.30;99.90;;;;;;4954852;29;20027;-88
2023/12/09 04:38:24;;;;;;;32.50;7.95;;;7.40;99.90;;;;;;4942949;29;20047;-88
2023/12/09 04:40:49;;;;;;;32.63;7.43;;;7.30;99.90;;;;;;4939022;29;20498;-88
2023/12/09 04:43:30;;;;;;;26.23;8.07;;;7.30;99.90;;;;;;4931605;29;20384;-88
2023/12/09 04:45:56;;;;;;;34.45;7.80;;;7.40;99.90;;;;;;4934164;29;20117;-87
2023/12/09 04:48:22;;;;;;;28.88;7.57;;;7.40;99.90;;;;;;4938603;29;20099;-89
2023/12/09 04:50:48;;;;;;;26.20;7.35;;;7.30;99.90;;;;;;4931222;29;20081;-88
2023/12/09 04:53:13;;;;;;;31.98;8.02;;;7.40;99.90;;;;;;4974769;23;20047;-88
2023/12/09 04:55:40;;;;;;;33.17;7.53;;;7.30;99.90;;;;;;4977136;28;20031;-88
2023/12/09 04:58:06;;;;;;;24.35;7.28;;;7.30;99.90;;;;;;4976839;28;20023;-88
2023/12/09 05:00:31;;;;;;;30.73;7.53;;;7.30;99.90;;;;;;4967279;28;20094;-88
2023/12/09 05:02:57;;;;;;;28.60;8.35;;;7.30;99.90;;;;;;4973773;28;20041;-88
2023/12/09 05:05:23;;;;;;;25.70;7.20;;;7.30;99.90;;;;;;4976301;28;20035;-88
2023/12/09 05:07:48;;;;;;;25.67;7.60;;;7.30;99.90;;;;;;4977517;28;20525;-89
2023/12/09 05:10:14;;;;;;;24.08;7.65;;;7.20;99.90;;;;;;4950410;23;20563;-89
2023/12/09 05:12:40;;;;;;;29.77;7.93;;;7.70;99.90;;;;;;4931741;29;20039;-89
2023/12/09 05:15:06;;;;;;;21.27;7.47;;;7.30;99.90;;;;;;4928389;29;20028;-89
2023/12/09 05:17:32;;;;;;;29.20;8.50;;;7.20;99.90;;;;;;4918747;29;20106;-88
2023/12/09 05:19:58;;;;;;;24.08;7.35;;;7.20;99.90;;;;;;4918992;29;20563;-89
2023/12/09 05:22:24;;;;;;;28.42;8.80;;;7.20;99.90;;;;;;4921882;29;20123;-89
2023/12/09 05:24:51;;;;;;;29.88;7.90;;;7.20;99.90;;;;;;4931701;29;20028;-89
2023/12/09 05:27:17;;;;;;;28.55;7.43;;;7.20;99.90;;;;;;4918836;29;20048;-87
2023/12/09 05:29:43;;;;;;;27.55;8.23;;;7.20;99.90;;;;;;4925066;29;20040;-89
2023/12/09 05:32:09;;;;;;;32.08;8.93;;;7.20;99.90;;;;;;4938406;29;20059;-88
2023/12/09 05:34:34;;;;;;;19.95;6.60;;;7.20;99.90;;;;;;4923709;29;20028;-88
2023/12/09 05:37:00;;;;;;;22.25;7.32;;;7.20;99.90;;;;;;4931866;29;20035;-88
2023/12/09 05:39:25;;;;;;;26.20;7.53;;;7.20;99.90;;;;;;4938008;29;20059;-88
2023/12/09 05:41:51;;;;;;;23.92;6.78;;;7.20;99.90;;;;;;4936942;29;20369;-87
2023/12/09 05:44:17;;;;;;;27.08;7.13;;;7.20;99.90;;;;;;4937809;29;20051;-89
2023/12/09 05:46:42;;;;;;;31.80;7.22;;;7.20;99.90;;;;;;4936246;29;20067;-87
2023/12/09 05:49:08;;;;;;;38.58;8.32;;;7.20;99.90;;;;;;4931546;29;20035;-88
2023/12/09 05:51:35;;;;;;;26.88;7.70;;;7.20;99.90;;;;;;4937540;29;20039;-89
2023/12/09 05:54:01;;;;;;;32.67;8.40;;;7.20;99.90;;;;;;4938079;29;20028;-88
2023/12/09 05:56:27;;;;;;;33.63;9.45;;;7.20;99.90;;;;;;4935649;29;20611;-88
2023/12/09 05:58:52;;;;;;;20.50;7.38;;;7.20;99.90;;;;;;4929225;29;20126;-88
2023/12/09 06:01:18;;;;;;;36.70;8.75;;;7.20;99.90;;;;;;4937223;29;20042;-88
2023/12/09 06:03:43;;;;;;;32.78;7.32;;;7.20;99.90;;;;;;4936749;29;20118;-89
2023/12/09 06:06:11;;;;;;;21.77;8.57;;;7.20;99.90;;;;;;4937057;29;20099;-89
2023/12/09 06:08:36;;;;;;;29.33;8.43;;;7.20;99.90;;;;;;4929574;29;20043;-88
2023/12/09 06:11:02;;;;;;;24.23;7.93;;;7.20;99.90;;;;;;4924601;29;20377;-89
2023/12/09 06:13:28;;;;;;;32.10;7.70;;;7.20;99.90;;;;;;4918312;29;20024;-88
2023/12/09 06:15:53;;;;;;;30.23;9.90;;;7.30;99.90;;;;;;4917407;29;20044;-88
2023/12/09 06:18:19;;;;;;;36.08;8.82;;;7.30;99.90;;;;;;4918270;29;20036;-87
2023/12/09 06:20:44;;;;;;;33.78;9.05;;;7.30;99.90;;;;;;4920961;29;20377;-88
2023/12/09 06:23:11;;;;;;;24.75;9.23;;;7.30;99.90;;;;;;4932675;28;20020;-88
2023/12/09 06:25:36;;;;;;;37.13;9.75;;;7.30;99.90;;;;;;4956340;28;20032;-89
2023/12/09 06:28:03;;;;;;;25.67;9.00;;;7.40;99.90;;;;;;4940082;29;20028;-88
2023/12/09 06:30:29;;;;;;;29.83;8.85;;;7.40;99.90;;;;;;4919307;29;20051;-88
2023/12/09 06:32:54;;;;;;;24.35;8.68;;;7.40;99.90;;;;;;4932123;29;20024;-88
2023/12/09 06:35:20;;;;;;;39.55;10.23;;;8.30;99.90;;;;;;4936165;29;20538;-90
2023/12/09 06:37:45;;;;;;;27.90;8.77;;;7.50;99.90;;;;;;4935899;29;20028;-89
2023/12/09 06:40:11;;;;;;;29.88;9.68;;;7.40;99.90;;;;;;4936893;29;20024;-87
2023/12/09 06:42:38;;;;;;;33.28;9.65;;;7.50;99.90;;;;;;4936371;29;20028;-88
2023/12/09 06:45:04;;;;;;;31.23;8.88;;;7.50;99.90;;;;;;4932369;29;20031;-91
2023/12/09 06:47:30;;;;;;;27.67;10.50;;;7.50;99.90;;;;;;4929559;29;20032;-92
2023/12/09 06:49:57;;;;;;;37.25;11.20;;;7.60;99.90;;;;;;4937556;29;20030;-92
2023/12/09 06:52:23;;;;;;;31.50;10.05;;;7.80;99.90;;;;;;4935045;29;20090;-92
2023/12/09 06:54:48;;;;;;;31.67;10.05;;;7.60;99.90;;;;;;4938170;29;20032;-93
2023/12/09 06:57:15;;;;;;;30.27;9.57;;;7.60;99.90;;;;;;4937780;29;20023;-92
2023/12/09 06:59:41;;;;;;;24.05;9.48;;;7.60;99.90;;;;;;4936909;29;20552;-92
2023/12/09 07:02:06;;;;;;;22.92;8.77;;;7.60;99.90;;;;;;4918915;29;20111;-92
2023/12/09 07:04:36;;;;;;;27.67;9.90;;;7.60;99.90;;;;;;4918185;29;20095;-92
2023/12/09 07:07:02;;;;;;;36.83;10.20;;;7.70;99.90;;;;;;4932310;29;20062;-91
2023/12/09 07:09:28;;;;;;;33.88;9.05;;;7.70;99.90;;;;;;4906416;29;20040;-92
2023/12/09 07:11:54;;;;;;;31.55;10.10;;;7.60;99.90;;;;;;4917570;29;20040;-93
2023/12/09 07:14:19;;;;;;;30.35;10.00;;;7.60;99.90;;;;;;4918028;29;20044;-92
2023/12/09 07:16:45;;;;;;;37.85;10.15;;;7.70;99.90;;;;;;4920242;29;20036;-91
2023/12/09 07:19:11;;;;;;;39.10;10.30;;;7.70;99.90;;;;;;4939493;29;20028;-93
2023/12/09 07:21:40;;;;;;;20.42;8.93;;;7.70;99.90;;;;;;4932067;29;20036;-91
2023/12/09 07:24:07;;;;;;;22.90;9.80;;;7.70;99.90;;;;;;4918249;29;20054;-92
2023/12/09 07:26:38;;;;;;;32.33;8.32;;;7.70;99.90;;;;;;4918227;29;20059;-92
2023/12/09 07:29:05;;;;;;;33.13;9.70;;;8.60;99.90;;;;;;4920594;29;20032;-92
2023/12/09 07:31:32;;;;;;;33.13;10.55;;;9.20;99.90;;;;;;4919148;29;20377;-92
2023/12/09 07:33:57;;;;;;;25.95;9.05;;;7.70;99.90;;;;;;4934596;29;20020;-91
2023/12/09 07:36:23;;;;;;;25.30;9.48;;;7.70;99.90;;;;;;4932852;29;20032;-91
2023/12/09 07:38:48;;;;;;;37.35;10.77;;;7.70;99.90;;;;;;4910958;29;20024;-90
2023/12/09 07:41:14;;;;;;;30.48;9.10;;;7.70;99.90;;;;;;4929451;29;20031;-91
2023/12/09 07:43:40;;;;;;;27.90;7.80;;;7.80;99.90;;;;;;4922779;29;20025;-90
2023/12/09 07:46:06;;;;;;;25.92;8.55;;;7.80;99.90;;;;;;4932541;29;20091;-92
2023/12/09 07:48:33;;;;;;;25.38;8.30;;;7.80;99.90;;;;;;4931072;29;20032;-92
2023/12/09 07:50:59;;;;;;;38.25;8.65;;;7.80;99.90;;;;;;4929016;29;20052;-92
2023/12/09 07:53:26;;;;;;;32.83;8.05;;;7.80;99.90;;;;;;4925568;29;20024;-91
2023/12/09 07:55:53;;;;;;;24.23;7.47;;;7.80;99.90;;;;;;4917366;29;20107;-91
2023/12/09 07:58:18;;;;;;;21.23;6.75;;;7.90;99.90;;;;;;4917915;29;20021;-91
2023/12/09 08:00:44;;;;;;;25.40;8.90;;;7.80;99.90;;;;;;4917579;29;20034;-91
2023/12/09 08:03:10;;;;;;;22.13;7.10;;;7.80;99.90;;;;;;4920150;29;20035;-91
2023/12/09 08:05:36;;;;;;;22.80;7.45;;;8.60;99.90;;;;;;4926471;29;20032;-88
2023/12/09 08:08:02;;;;;;;22.23;7.50;;;7.90;99.90;;;;;;4932286;29;20024;-92
2023/12/09 08:10:28;;;;;;;30.00;8.15;;;7.90;99.90;;;;;;4938561;29;20048;-91
2023/12/09 08:12:54;;;;;;;29.33;7.93;;;8.40;99.90;;;;;;4944000;29;20103;-91
2023/12/09 08:15:19;;;;;;;27.85;7.10;;;7.90;99.90;;;;;;4931931;29;20230;-93
2023/12/09 08:17:45;;;;;;;19.52;6.68;;;7.90;99.90;;;;;;4933082;29;20031;-93
2023/12/09 08:20:11;;;;;;;22.85;5.97;;;7.90;99.90;;;;;;4940852;29;20106;-93
2023/12/09 08:22:47;;;;;;;23.15;6.65;;;7.90;99.90;;;;;;4940639;29;20036;-95
2023/12/09 08:25:22;;;;;;;24.73;6.28;;;7.90;99.90;;;;;;4942850;29;20111;-94
2023/12/09 08:27:48;;;;;;;20.20;6.30;;;8.50;99.90;;;;;;4943844;29;20024;-95
2023/12/09 08:30:13;;;;;;;27.98;6.95;;;8.70;99.90;;;;;;4922201;29;20064;-94
2023/12/09 08:32:41;;;;;;;23.23;6.60;;;7.90;99.90;;;;;;4922587;29;20044;-93
2023/12/09 08:35:08;;;;;;;22.77;6.40;;;8.90;99.90;;;;;;4921996;29;20442;-92
2023/12/09 08:37:36;;;;;;;24.58;5.72;;;8.00;99.90;;;;;;4926052;29;20028;-93
2023/12/09 08:40:19;;;;;;;23.75;6.60;;;8.80;99.90;;;;;;4940257;29;20036;-91
2023/12/09 08:42:46;;;;;;;25.05;6.75;;;7.90;99.90;;;;;;4931275;29;20027;-89
2023/12/09 08:45:16;;;;;;;24.48;6.07;;;7.90;99.90;;;;;;4938307;29;20498;-92
2023/12/09 08:47:42;;;;;;;27.83;6.25;;;7.90;99.90;;;;;;4935003;29;20024;-90
2023/12/09 08:50:09;;;;;;;23.67;6.35;;;7.90;99.90;;;;;;4935600;29;20043;-92
2023/12/09 08:52:35;;;;;;;22.73;6.25;;;7.90;99.90;;;;;;4937740;29;20050;-90
2023/12/09 08:55:03;;;;;;;29.13;6.22;;;7.90;99.90;;;;;;4938956;29;20288;-92
2023/12/09 08:57:28;;;;;;;26.00;5.80;;;7.90;99.90;;;;;;4938908;29;20094;-92
2023/12/09 08:59:56;;;;;;;22.48;6.00;;;8.10;99.90;;;;;;4939851;29;20040;-93
2023/12/09 09:02:26;;;;;;;23.45;4.80;;;7.90;99.90;;;;;;4942562;29;20055;-91
2023/12/09 09:04:52;;;;;;;28.00;6.40;;;7.90;99.90;;;;;;4957657;28;20015;-95
2023/12/09 09:07:24;;;;;;;24.60;6.15;;;8.00;99.90;;;;;;4958397;29;20019;-93
2023/12/09 09:10:06;;;;;;;21.35;5.47;;;8.60;99.90;;;;;;4936933;29;20523;-91
2023/12/09 09:12:32;;;;;;;19.63;4.88;;;7.90;99.90;;;;;;4933232;29;20134;-93
2023/12/09 09:14:57;;;;;;;18.63;5.07;;;8.90;99.90;;;;;;4938495;29;20067;-92
2023/12/09 09:17:23;;;;;;;18.60;4.22;;;8.90;99.90;;;;;;4935878;29;20118;-93
2023/12/09 09:19:49;;;;;;;19.63;4.72;;;7.90;99.90;;;;;;4939061;29;20034;-91
2023/12/09 09:22:29;;;;;;;16.00;4.65;;;8.90;99.90;;;;;;4941147;29;20431;-94
2023/12/09 09:24:55;;;;;;;22.17;4.85;;;8.70;99.90;;;;;;4935945;29;20036;-91
2023/12/09 09:27:30;;;;;;;24.98;5.28;;;8.60;99.90;;;;;;4938671;29;20028;-90
2023/12/09 09:29:56;;;;;;;15.70;4.13;;;8.90;99.90;;;;;;4936907;29;20036;-93
2023/12/09 09:32:38;;;;;;;28.70;5.30;;;8.40;99.90;;;;;;4938136;29;20055;-95
2023/12/09 09:35:20;;;;;;;19.77;4.07;;;8.90;99.90;;;;;;4949703;29;20027;-92
2023/12/09 09:37:46;;;;;;;;;;;8.80;99.90;;;;;;4948376;29;20055;-94
2023/12/09 09:40:18;;;;;;;17.45;4.10;;;7.90;99.90;;;;;;4947983;29;19914;-91
2023/12/09 09:42:53;;;;;;;17.48;4.63;;;8.00;99.90;;;;;;4940311;29;20146;-90
2023/12/09 09:45:30;;;;;;;27.55;4.63;;;8.00;99.90;;;;;;4943360;29;20028;-90
2023/12/09 09:50:52;;;;;;;19.65;4.70;;;7.70;99.90;;;;;;4938685;29;20167;-93
2023/12/09 09:53:41;;;;;;;13.30;4.05;;;9.30;99.90;;;;;;4911012;29;20039;-91
2023/12/09 09:56:08;;;;;;;18.45;4.13;;;8.10;99.90;;;;;;4946254;28;20008;-93
2023/12/09 09:58:59;;;;;;;16.10;4.28;;;8.20;99.90;;;;;;4960772;28;20028;-94
2023/12/09 10:01:26;;;;;;;13.13;3.80;;;7.70;99.90;;;;;;5067478;23;20109;-92
2023/12/09 10:04:05;;;;;;;11.27;4.20;;;8.80;99.90;;;;;;4975175;28;20035;-94
2023/12/09 10:06:40;;;;;;;16.10;3.80;;;8.20;99.90;;;;;;4981032;28;20034;-95
2023/12/09 10:09:13;;;;;;;20.60;4.18;;;7.90;99.90;;;;;;4982998;28;20059;-90
2023/12/09 10:11:57;;;;;;;14.57;3.67;;;9.00;99.90;;;;;;4982506;28;20039;-93
2023/12/09 10:15:01;;;;;;;14.35;3.65;;;9.60;99.90;;;;;;4968744;28;20066;-95
2023/12/09 10:18:35;;;;;;;17.42;3.90;;;8.30;99.90;;;;;;4938949;29;20049;-94
2023/12/09 10:41:45;;;;;;;14.60;4.22;;;8.50;99.90;;;;;;4975259;28;20035;-92
2023/12/09 10:44:31;;;;;;;21.38;4.30;;;9.10;99.90;;;;;;4973861;29;20058;-94
2023/12/09 10:46:57;;;;;;;12.95;3.10;;;8.50;99.90;;;;;;4977255;28;20019;-93
2023/12/09 10:49:53;;;;;;;16.50;4.82;;;8.50;99.90;;;;;;4979790;28;20020;-93
2023/12/09 10:52:21;;;;;;;14.98;3.65;;;8.50;99.90;;;;;;4979004;28;20050;-92
2023/12/09 10:55:15;;;;;;;6.85;3.67;;;9.40;99.90;;;;;;4978168;28;20019;-93
2023/12/09 10:58:08;;;;;;;12.85;3.25;;;8.50;99.90;;;;;;4945941;29;20038;-95
2023/12/09 11:00:36;;;;;;;15.70;3.03;;;8.30;99.90;;;;;;4955969;28;20063;-91
2023/12/09 11:03:03;;;;;;;11.00;3.70;;;8.50;99.90;;;;;;4958447;28;20392;-89
2023/12/09 11:05:32;;;;;;;13.50;3.42;;;8.60;99.90;;;;;;4946712;28;20573;-88
2023/12/09 11:08:04;;;;;;;10.68;3.10;;;8.50;99.90;;;;;;4951809;28;20035;-89
2023/12/09 11:10:31;;;;;;;11.02;3.53;;;9.50;99.90;;;;;;4955583;29;20031;-89
2023/12/09 11:12:57;;;;;;;9.60;3.15;;;8.60;99.90;;;;;;4953840;29;20035;-89
2023/12/09 11:15:32;;;;;;;12.27;2.85;;;8.50;99.90;;;;;;4954898;28;20103;-90
2023/12/09 11:18:09;;;;;;;9.27;3.08;;;8.60;99.90;;;;;;4951989;28;20082;-92
2023/12/09 11:20:41;;;;;;;10.00;2.95;;;9.30;99.90;;;;;;4955632;29;20055;-91
2023/12/09 11:23:10;;;;;;;10.40;3.17;;;9.50;99.90;;;;;;4954001;29;20031;-92
2023/12/09 11:25:39;;;;;;;10.52;3.13;;;9.60;99.90;;;;;;4953522;28;20043;-92
2023/12/09 11:28:10;;;;;;;9.63;2.50;;;8.50;99.90;;;;;;4955549;28;20471;-88
2023/12/09 11:30:56;;;;;;;11.00;3.15;;;9.60;99.90;;;;;;4954867;29;20034;-88
2023/12/09 11:33:30;;;;;;;7.85;2.63;;;8.60;99.90;;;;;;4954370;29;20031;-91
2023/12/09 11:36:12;;;;;;;6.85;2.33;;;9.00;99.90;;;;;;4954414;28;20027;-94
2023/12/09 11:38:51;;;;;;;7.90;2.33;;;8.50;99.90;;;;;;4953952;28;20023;-89
2023/12/09 11:41:17;;;;;;;9.32;2.30;;;9.20;99.90;;;;;;4935588;29;20078;-89
2023/12/09 11:43:43;;;;;;;6.95;2.42;;;8.50;99.90;;;;;;4965371;28;20035;-90
2023/12/09 11:46:09;;;;;;;14.50;3.42;;;9.70;99.90;;;;;;4964271;28;20031;-90
2023/12/09 11:48:35;;;;;;;12.00;2.80;;;9.60;99.90;;;;;;4951885;29;20031;-87
2023/12/09 11:51:18;;;;;;;6.82;1.77;;;9.30;99.90;;;;;;4951308;28;20039;-93
2023/12/09 11:54:15;;;;;;;9.73;2.58;;;9.40;99.90;;;;;;4955187;29;20031;-94
2023/12/09 11:59:18;;;;;;;7.15;1.98;;;8.60;99.90;;;;;;5002903;23;20066;-95
2023/12/09 12:02:03;;;;;;;10.88;2.53;;;9.40;99.90;;;;;;4972828;28;20090;-93
2023/12/09 12:04:33;;;;;;;9.38;2.75;;;7.90;99.90;;;;;;4946060;29;20031;-93
2023/12/09 12:07:13;;;;;;;6.45;2.80;;;8.80;99.90;;;;;;4972389;29;20034;-94
2023/12/09 12:13:08;;;;;;;5.30;2.35;;;8.60;99.90;;;;;;5161710;23;20127;-95
2023/12/09 12:15:35;;;;;;;2.35;1.52;;;7.70;99.90;;;;;;5020347;23;20062;-93
2023/12/09 12:39:04;;;;;;;6.03;1.58;;;8.70;99.90;;;;;;4970364;28;20055;-91
2023/12/09 12:41:38;;;;;;;6.50;1.55;;;8.60;99.90;;;;;;4959840;28;20042;-93
2023/12/09 12:44:05;;;;;;;1.77;1.25;;;8.60;99.90;;;;;;4950802;28;20392;-91
2023/12/09 12:46:49;;;;;;;6.22;1.83;;;8.60;99.90;;;;;;4956952;28;20031;-94
2023/12/09 12:49:15;;;;;;;3.72;1.30;;;8.60;99.90;;;;;;4967631;28;20031;-94
2023/12/09 12:52:03;;;;;;;3.88;1.27;;;8.60;99.90;;;;;;4959951;29;20070;-94
2023/12/09 12:54:29;;;;;;;2.45;1.10;;;8.70;99.90;;;;;;4951254;28;20038;-94
2023/12/09 12:56:54;;;;;;;5.32;1.60;;;8.60;99.90;;;;;;4964821;28;20027;-94
2023/12/09 12:59:43;;;;;;;11.27;5.55;;;9.50;99.90;;;;;;4969747;28;20055;-94
2023/12/09 13:02:22;;;;;;;13.13;4.47;;;8.00;99.90;;;;;;4957081;28;20028;-95
2023/12/09 13:04:54;;;;;;;5.72;1.08;;;8.90;99.90;;;;;;4956412;29;20047;-94
2023/12/09 13:07:34;;;;;;;4.95;1.00;;;8.60;99.90;;;;;;4945240;29;20038;-94
2023/12/09 13:10:03;;;;;;;4.85;0.90;;;8.50;99.90;;;;;;4962952;29;20023;-95
2023/12/09 13:12:40;;;;;;;1.55;1.13;;;8.60;99.90;;;;;;4962663;28;20566;-93
2023/12/09 13:15:14;;;;;;;3.92;1.00;;;8.60;99.90;;;;;;4960966;28;20539;-95
2023/12/09 13:17:53;;;;;;;2.60;1.30;;;8.50;99.90;;;;;;4968745;29;20019;-93
2023/12/09 13:20:33;;;;;;;4.55;1.20;;;8.50;99.90;;;;;;4972244;29;20030;-94
2023/12/09 13:23:19;;;;;;;1.92;0.95;;;8.60;99.90;;;;;;4981053;23;20046;-94
2023/12/09 13:26:11;;;;;;;6.90;1.10;;;8.50;99.90;;;;;;4977672;28;20191;-92
2023/12/09 13:28:39;;;;;;;6.95;1.33;;;8.50;99.90;;;;;;4996750;28;20066;-94
2023/12/09 13:31:27;;;;;;;2.17;1.13;;;9.60;99.90;;;;;;5003394;28;20046;-94
2023/12/09 13:33:54;;;;;;;4.93;1.38;;;8.40;99.90;;;;;;4985851;28;20034;-91
2023/12/09 13:36:38;;;;;;;3.30;1.17;;;8.40;99.90;;;;;;4959242;28;20121;-93
2023/12/09 13:39:05;;;;;;;4.68;1.35;;;8.40;99.90;;;;;;4987695;28;20035;-94
2023/12/09 13:41:33;;;;;;;3.92;1.13;;;8.40;99.90;;;;;;4992205;28;20055;-92
2023/12/09 13:44:21;;;;;;;4.22;1.35;;;9.80;99.90;;;;;;4991440;28;20027;-93
2023/12/09 13:47:12;;;;;;;3.55;1.05;;;8.40;99.90;;;;;;4977504;28;20027;-91
2023/12/09 13:49:41;;;;;;;;;;;8.40;99.90;;;;;;4985148;28;20498;-94
2023/12/09 13:52:26;;;;;;;5.03;1.63;;;8.40;99.90;;;;;;4989151;28;20241;-92